createdAt,value
2019-01-23T00:01:46.573Z,-4.90
2019-01-23T00:04:26.751Z,-5.80
2019-01-23T00:07:06.841Z,-4.70
2019-01-23T00:09:47.092Z,-4.90
2019-01-23T00:12:27.198Z,-4.90
2019-01-23T00:15:07.063Z,-4.90
2019-01-23T00:17:47.323Z,-5.20
2019-01-23T00:20:27.293Z,-4.90
2019-01-23T00:23:07.292Z,-5.00
2019-01-23T00:25:47.380Z,-5.00
2019-01-23T00:28:27.290Z,-5.60
2019-01-23T00:31:07.121Z,-5.10
2019-01-23T00:33:47.091Z,-6.00
2019-01-23T00:36:27.064Z,-6.10
2019-01-23T00:39:07.123Z,-5.90
2019-01-23T00:41:46.929Z,-4.50
2019-01-23T00:44:27.147Z,-5.30
2019-01-23T00:47:07.231Z,-3.70
2019-01-23T00:49:47.558Z,-5.40
2019-01-23T00:52:27.517Z,-6.30
2019-01-23T00:55:07.529Z,-5.50
2019-01-23T00:57:47.525Z,-5.50
2019-01-23T01:00:27.516Z,-5.40
2019-01-23T01:03:07.330Z,-5.40
2019-01-23T01:05:47.886Z,-6.40
2019-01-23T01:08:28.507Z,-5.40
2019-01-23T01:11:08.174Z,-5.40
2019-01-23T01:13:48.367Z,-5.40
2019-01-23T01:16:28.466Z,-5.40
2019-01-23T01:19:08.549Z,-5.40
2019-01-23T01:21:48.674Z,-5.40
2019-01-23T01:24:28.747Z,-5.40
2019-01-23T01:27:08.747Z,-5.50
2019-01-23T01:29:48.474Z,-5.50
2019-01-23T01:32:28.584Z,-6.00
2019-01-23T01:35:08.903Z,-5.50
2019-01-23T01:37:48.915Z,-5.50
2019-01-23T01:40:28.985Z,-5.30
2019-01-23T01:43:09.084Z,-5.50
2019-01-23T01:45:49.056Z,-5.50
2019-01-23T01:48:28.954Z,-5.50
2019-01-23T01:51:08.868Z,-5.50
2019-01-23T01:53:49.070Z,-5.90
2019-01-23T01:56:29.076Z,-5.50
2019-01-23T01:59:09.274Z,-5.50
2019-01-23T02:01:49.176Z,-5.70
2019-01-23T02:04:29.132Z,-5.60
2019-01-23T02:07:09.058Z,-5.40
2019-01-23T02:09:49.116Z,-5.40
2019-01-23T02:12:29.158Z,-5.40
2019-01-23T02:15:09.344Z,-5.40
2019-01-23T02:17:49.247Z,-5.50
2019-01-23T02:20:29.270Z,-5.50
2019-01-23T02:23:09.384Z,-6.00
2019-01-23T02:25:49.374Z,-6.00
2019-01-23T02:28:29.704Z,-5.70
2019-01-23T02:31:09.764Z,-6.30
2019-01-23T02:33:49.591Z,-5.80
2019-01-23T02:36:29.774Z,-5.90
2019-01-23T02:39:09.510Z,-5.90
2019-01-23T02:41:50.969Z,-5.30
2019-01-23T02:44:31.609Z,-5.90
2019-01-23T02:47:11.523Z,-6.10
2019-01-23T02:49:51.708Z,-6.20
2019-01-23T02:52:31.744Z,-6.40
2019-01-23T02:55:11.821Z,-6.30
2019-01-23T02:57:51.759Z,-6.60
2019-01-23T03:00:31.907Z,-6.30
2019-01-23T03:03:12.074Z,-6.30
2019-01-23T03:05:52.277Z,-6.10
2019-01-23T03:08:32.152Z,-6.30
2019-01-23T03:11:12.144Z,-4.70
2019-01-23T03:13:52.173Z,-5.10
2019-01-23T03:16:32.062Z,-6.30
2019-01-23T03:19:12.265Z,-6.30
2019-01-23T03:21:52.295Z,-6.30
2019-01-23T03:24:32.311Z,-6.30
2019-01-23T03:27:12.596Z,-6.30
2019-01-23T03:29:52.595Z,-6.20
2019-01-23T03:32:32.531Z,-6.30
2019-01-23T03:35:12.715Z,-6.20
2019-01-23T03:37:52.869Z,-6.20
2019-01-23T03:40:32.985Z,-6.20
2019-01-23T03:43:13.009Z,-6.20
2019-01-23T03:45:52.897Z,-5.10
2019-01-23T03:48:33.357Z,-6.20
2019-01-23T03:51:13.324Z,-6.10
2019-01-23T03:53:53.477Z,-6.10
2019-01-23T03:56:33.399Z,-6.10
2019-01-23T03:59:13.424Z,-6.90
2019-01-23T04:01:53.298Z,-5.50
2019-01-23T04:04:33.370Z,-6.10
2019-01-23T04:07:13.621Z,-5.90
2019-01-23T04:09:53.792Z,-6.10
2019-01-23T04:12:33.948Z,-5.90
2019-01-23T04:15:13.973Z,-6.10
2019-01-23T04:17:54.055Z,-6.10
2019-01-23T04:20:34.088Z,-6.20
2019-01-23T04:23:13.848Z,-6.20
2019-01-23T04:25:53.829Z,-6.20
2019-01-23T04:28:33.883Z,-6.20
2019-01-23T04:31:14.023Z,-4.60
2019-01-23T04:33:54.260Z,-6.20
2019-01-23T04:36:34.242Z,-6.20
2019-01-23T04:39:14.550Z,-6.20
2019-01-23T04:41:54.438Z,-6.20
2019-01-23T04:44:34.596Z,-6.20
2019-01-23T04:47:14.705Z,-6.20
2019-01-23T04:49:54.843Z,-6.20
2019-01-23T04:53:00.153Z,-5.60
2019-01-23T04:55:40.384Z,-6.80
2019-01-23T04:58:20.945Z,-6.10
2019-01-23T05:01:01.044Z,-6.10
2019-01-23T05:03:41.163Z,-6.10
2019-01-23T05:06:21.185Z,-6.10
2019-01-23T05:09:01.396Z,-6.10
2019-01-23T05:11:41.332Z,-6.00
2019-01-23T05:14:21.450Z,-5.40
2019-01-23T05:17:01.785Z,-6.20
2019-01-23T05:19:41.864Z,-6.00
2019-01-23T05:22:21.793Z,-6.60
2019-01-23T05:25:02.123Z,-4.70
2019-01-23T05:27:42.117Z,-6.20
2019-01-23T05:30:22.489Z,-6.20
2019-01-23T05:33:02.541Z,-6.30
2019-01-23T05:35:42.602Z,-6.40
2019-01-23T05:38:22.641Z,-6.50
2019-01-23T05:41:02.762Z,-6.50
2019-01-23T05:43:42.896Z,-6.60
2019-01-23T05:46:23.134Z,-6.70
2019-01-23T05:49:03.058Z,-6.80
2019-01-23T05:51:43.105Z,-6.90
2019-01-23T05:54:23.078Z,-6.90
2019-01-23T05:57:03.007Z,-7.00
2019-01-23T05:59:42.979Z,-7.00
2019-01-23T06:02:22.821Z,-6.60
2019-01-23T06:05:03.196Z,-7.10
2019-01-23T06:07:43.231Z,-7.00
2019-01-23T06:10:23.367Z,-7.00
2019-01-23T06:13:03.392Z,-7.00
2019-01-23T06:15:43.439Z,-7.00
2019-01-23T06:18:23.497Z,-7.30
2019-01-23T06:21:03.514Z,-7.40
2019-01-23T06:23:43.598Z,-7.00
2019-01-23T06:26:23.343Z,-7.00
2019-01-23T06:29:03.434Z,-7.50
2019-01-23T06:31:43.588Z,-7.60
2019-01-23T06:34:23.601Z,-6.50
2019-01-23T06:37:03.578Z,-6.90
2019-01-23T06:39:43.419Z,-7.90
2019-01-23T06:42:23.504Z,-7.10
2019-01-23T06:45:03.585Z,-7.10
2019-01-23T06:47:43.866Z,-7.10
2019-01-23T06:50:23.828Z,-7.10
2019-01-23T06:53:03.800Z,-7.80
2019-01-23T06:55:43.781Z,-7.10
2019-01-23T06:58:23.939Z,-7.10
2019-01-23T07:01:04.015Z,-7.10
2019-01-23T07:03:44.047Z,-7.20
2019-01-23T07:06:23.927Z,-6.70
2019-01-23T07:09:04.154Z,-7.10
2019-01-23T07:11:44.221Z,-7.00
2019-01-23T07:14:24.195Z,-6.60
2019-01-23T07:17:04.160Z,-6.30
2019-01-23T07:19:44.219Z,-7.10
2019-01-23T07:22:24.115Z,-7.20
2019-01-23T07:25:03.987Z,-7.20
2019-01-23T07:27:44.117Z,-8.00
2019-01-23T07:30:24.602Z,-7.30
2019-01-23T07:33:04.339Z,-8.30
2019-01-23T07:35:44.476Z,-7.30
2019-01-23T07:38:24.745Z,-7.30
2019-01-23T07:41:04.697Z,-8.00
2019-01-23T07:43:44.614Z,-7.40
2019-01-23T07:46:24.791Z,-7.40
2019-01-23T07:49:04.691Z,-7.30
2019-01-23T07:51:44.811Z,-7.30
2019-01-23T07:54:24.895Z,-7.30
2019-01-23T07:57:05.131Z,-7.20
2019-01-23T07:59:45.019Z,-7.30
2019-01-23T08:02:25.445Z,-7.20
2019-01-23T08:05:05.349Z,-7.20
2019-01-23T08:07:45.508Z,-7.10
2019-01-23T08:10:25.830Z,-7.70
2019-01-23T08:13:05.762Z,-7.10
2019-01-23T08:15:46.035Z,-7.10
2019-01-23T08:18:25.898Z,-7.90
2019-01-23T08:21:05.827Z,-7.00
2019-01-23T08:23:45.894Z,-7.00
2019-01-23T08:26:25.933Z,-6.90
2019-01-23T08:29:05.951Z,-5.50
2019-01-23T08:31:45.846Z,-6.80
2019-01-23T08:34:25.795Z,-6.50
2019-01-23T08:37:05.616Z,-6.60
2019-01-23T08:39:45.705Z,-6.50
2019-01-23T08:42:25.747Z,-6.50
2019-01-23T08:45:05.659Z,-6.40
2019-01-23T08:47:45.998Z,-6.30
2019-01-23T08:50:25.978Z,-6.20
2019-01-23T08:53:06.248Z,-6.80
2019-01-23T08:55:46.090Z,-6.00
2019-01-23T08:58:25.944Z,-6.50
2019-01-23T09:01:06.155Z,-5.90
2019-01-23T09:03:46.047Z,-5.80
2019-01-23T09:06:26.167Z,-6.50
2019-01-23T09:09:06.305Z,-5.60
2019-01-23T09:11:46.210Z,-5.30
2019-01-23T09:14:26.407Z,-6.00
2019-01-23T09:17:06.394Z,-5.40
2019-01-23T09:19:46.472Z,-6.30
2019-01-23T09:22:26.498Z,-3.70
2019-01-23T09:25:06.497Z,-5.30
2019-01-23T09:27:46.619Z,-5.20
2019-01-23T09:30:26.679Z,-5.70
2019-01-23T09:33:06.957Z,-5.00
2019-01-23T09:35:46.974Z,-4.80
2019-01-23T09:38:27.101Z,-4.70
2019-01-23T09:41:07.023Z,-4.60
2019-01-23T09:43:47.092Z,-3.00
2019-01-23T09:46:27.007Z,-4.30
2019-01-23T09:49:07.129Z,-4.70
2019-01-23T09:51:47.089Z,-4.10
2019-01-23T09:54:27.137Z,-4.00
2019-01-23T09:57:06.933Z,-3.90
2019-01-23T09:59:46.888Z,-2.30
2019-01-23T10:02:26.865Z,-4.20
2019-01-23T10:05:07.014Z,-4.40
2019-01-23T10:07:47.012Z,-3.70
2019-01-23T10:10:26.940Z,-3.60
2019-01-23T10:13:06.922Z,-3.50
2019-01-23T10:15:46.859Z,-3.50
2019-01-23T10:18:26.763Z,-3.40
2019-01-23T10:21:06.736Z,-4.60
2019-01-23T10:23:46.783Z,-3.30
2019-01-23T10:26:26.908Z,-4.50
2019-01-23T10:29:06.779Z,-3.20
2019-01-23T10:31:46.922Z,-3.20
2019-01-23T10:34:26.893Z,-3.10
2019-01-23T10:37:07.070Z,-2.40
2019-01-23T10:39:47.047Z,-3.10
2019-01-23T10:42:27.335Z,-2.90
2019-01-23T10:45:07.292Z,-2.90
2019-01-23T10:47:47.366Z,-3.00
2019-01-23T10:50:27.363Z,-3.00
2019-01-23T10:53:07.807Z,-3.00
2019-01-23T10:55:47.624Z,-1.30
2019-01-23T10:58:27.771Z,-3.70
2019-01-23T11:01:13.336Z,-2.70
2019-01-23T11:03:50.045Z,-2.70
2019-01-23T11:06:30.122Z,-2.60
2019-01-23T11:09:10.226Z,-2.50
2019-01-23T11:11:50.144Z,-3.20
2019-01-23T11:14:30.378Z,-2.70
2019-01-23T11:17:10.444Z,-2.60
2019-01-23T11:19:50.500Z,-3.10
2019-01-23T11:22:30.579Z,-1.20
2019-01-23T11:25:10.800Z,-2.40
2019-01-23T11:27:50.776Z,-2.40
2019-01-23T11:30:30.935Z,-3.20
2019-01-23T11:33:10.980Z,-2.40
2019-01-23T11:35:50.949Z,-2.20
2019-01-23T11:38:31.064Z,-2.10
2019-01-23T11:41:11.277Z,-2.10
2019-01-23T11:43:51.206Z,-2.60
2019-01-23T11:46:31.181Z,-1.90
2019-01-23T11:49:11.149Z,-2.40
2019-01-23T11:51:51.441Z,-1.90
2019-01-23T11:54:31.244Z,-2.40
2019-01-23T11:57:11.176Z,-1.90
2019-01-23T11:59:51.079Z,-1.80
2019-01-23T12:02:31.220Z,-1.80
2019-01-23T12:05:11.034Z,-1.60
2019-01-23T12:07:51.270Z,-1.70
2019-01-23T12:10:31.333Z,-1.80
2019-01-23T12:13:11.358Z,-1.70
2019-01-23T12:15:51.411Z,-1.60
2019-01-23T12:18:31.388Z,-1.70
2019-01-23T12:21:11.878Z,-1.70
2019-01-23T12:23:58.090Z,-0.30
2019-01-23T12:26:33.523Z,-2.40
2019-01-23T12:29:13.256Z,-2.30
2019-01-23T12:31:53.262Z,-1.80
2019-01-23T12:34:33.129Z,-1.30
2019-01-23T12:37:13.160Z,-1.90
2019-01-23T12:39:53.343Z,-0.10
2019-01-23T12:42:33.549Z,-1.60
2019-01-23T12:45:13.564Z,-1.60
2019-01-23T12:47:53.781Z,-2.00
2019-01-23T12:50:33.853Z,-1.80
2019-01-23T12:53:14.204Z,-1.70
2019-01-23T12:55:54.091Z,-1.80
2019-01-23T12:58:34.072Z,-1.80
2019-01-23T13:01:13.965Z,-1.90
2019-01-23T13:03:53.896Z,-1.80
2019-01-23T13:06:33.853Z,-1.90
2019-01-23T13:09:13.920Z,-2.00
2019-01-23T13:11:53.944Z,-2.00
2019-01-23T13:14:33.979Z,-2.00
2019-01-23T13:17:13.916Z,-1.80
2019-01-23T13:19:53.845Z,-1.90
2019-01-23T13:22:33.964Z,-1.90
2019-01-23T13:25:14.020Z,-1.90
2019-01-23T13:27:54.156Z,-2.00
2019-01-23T13:30:34.319Z,-2.00
2019-01-23T13:33:14.342Z,-2.10
2019-01-23T13:35:54.261Z,-2.10
2019-01-23T13:38:34.305Z,-2.00
2019-01-23T13:41:14.264Z,-1.20
2019-01-23T13:43:54.089Z,-1.90
2019-01-23T13:46:34.215Z,-2.30
2019-01-23T13:49:14.347Z,-2.00
2019-01-23T13:51:54.503Z,-2.00
2019-01-23T13:54:34.599Z,-2.00
2019-01-23T13:57:14.556Z,-2.10
2019-01-23T13:59:54.587Z,-2.20
2019-01-23T14:02:34.350Z,-2.20
2019-01-23T14:05:14.305Z,-2.20
2019-01-23T14:07:54.260Z,-2.10
2019-01-23T14:10:34.215Z,-2.20
2019-01-23T14:13:14.209Z,-2.20
2019-01-23T14:15:53.956Z,-2.30
2019-01-23T14:18:34.080Z,-2.70
2019-01-23T14:21:13.897Z,-2.40
2019-01-23T14:23:54.135Z,-1.80
2019-01-23T14:26:34.148Z,-2.50
2019-01-23T14:29:14.265Z,-2.60
2019-01-23T14:31:54.400Z,-2.60
2019-01-23T14:34:34.500Z,-2.80
2019-01-23T14:37:14.428Z,-2.90
2019-01-23T14:39:54.590Z,-2.80
2019-01-23T14:42:34.660Z,-3.00
2019-01-23T14:45:14.857Z,-3.80
2019-01-23T14:47:54.989Z,-3.00
2019-01-23T14:50:35.007Z,-3.10
2019-01-23T14:53:15.388Z,-3.10
2019-01-23T14:55:55.089Z,-3.90
2019-01-23T14:58:35.313Z,-3.20
2019-01-23T15:01:15.296Z,-4.10
2019-01-23T15:03:55.321Z,-1.90
2019-01-23T15:06:35.377Z,-2.00
2019-01-23T15:09:15.400Z,-3.40
2019-01-23T15:11:55.136Z,-3.40
2019-01-23T15:14:35.319Z,-3.40
2019-01-23T15:17:15.494Z,-3.50
2019-01-23T15:19:55.552Z,-3.40
2019-01-23T15:22:35.624Z,-3.50
2019-01-23T15:25:15.585Z,-3.60
2019-01-23T15:27:55.728Z,-4.60
2019-01-23T15:30:35.953Z,-4.10
2019-01-23T15:33:15.979Z,-3.70
2019-01-23T15:35:56.020Z,-3.70
2019-01-23T15:38:36.198Z,-3.80
2019-01-23T15:41:16.483Z,-2.40
2019-01-23T15:43:56.451Z,-3.90
2019-01-23T15:46:36.332Z,-4.00
2019-01-23T15:49:16.269Z,-4.90
2019-01-23T15:51:56.452Z,-4.00
2019-01-23T15:54:36.516Z,-4.00
2019-01-23T15:57:16.766Z,-4.10
2019-01-23T15:59:56.724Z,-4.10
2019-01-23T16:02:36.693Z,-4.20
2019-01-23T16:05:16.663Z,-2.80
2019-01-23T16:07:56.846Z,-4.30
2019-01-23T16:10:36.817Z,-5.10
2019-01-23T16:13:16.736Z,-4.30
2019-01-23T16:15:56.628Z,-4.30
2019-01-23T16:18:36.759Z,-4.90
2019-01-23T16:21:16.774Z,-4.30
2019-01-23T16:23:56.946Z,-3.40
2019-01-23T16:26:36.814Z,-5.10
2019-01-23T16:29:16.752Z,-5.40
2019-01-23T16:31:56.826Z,-4.20
2019-01-23T16:34:36.991Z,-4.20
2019-01-23T16:37:16.883Z,-4.10
2019-01-23T16:39:56.930Z,-4.10
2019-01-23T16:42:37.685Z,-4.40
2019-01-23T16:45:17.892Z,-4.70
2019-01-23T16:47:57.839Z,-3.90
2019-01-23T16:50:37.729Z,-3.80
2019-01-23T16:53:17.844Z,-4.90
2019-01-23T16:55:57.891Z,-3.70
2019-01-23T16:58:37.955Z,-3.60
2019-01-23T17:01:17.706Z,-3.60
2019-01-23T17:03:58.041Z,-3.50
2019-01-23T17:06:38.095Z,-2.00
2019-01-23T17:09:18.007Z,-3.40
2019-01-23T17:11:58.006Z,-3.70
2019-01-23T17:14:38.025Z,-3.90
2019-01-23T17:17:18.046Z,-3.30
2019-01-23T17:19:59.271Z,-4.00
2019-01-23T17:22:39.949Z,-3.20
2019-01-23T17:25:19.949Z,-3.10
2019-01-23T17:27:59.984Z,-3.20
2019-01-23T17:30:40.081Z,-3.30
2019-01-23T17:33:19.934Z,-3.30
2019-01-23T17:35:59.845Z,-4.20
2019-01-23T17:38:39.746Z,-3.80
2019-01-23T17:41:19.747Z,-3.40
2019-01-23T17:44:00.404Z,-3.80
2019-01-23T17:46:41.168Z,-3.30
2019-01-23T17:49:21.070Z,-3.30
2019-01-23T17:52:01.081Z,-3.30
2019-01-23T17:54:41.114Z,-3.40
2019-01-23T17:57:21.085Z,-3.40
2019-01-23T18:00:01.310Z,-3.40
2019-01-23T18:02:41.170Z,-3.40
2019-01-23T18:05:21.061Z,-3.40
2019-01-23T18:08:01.083Z,-3.40
2019-01-23T18:10:41.312Z,-3.90
2019-01-23T18:13:21.131Z,-2.00
2019-01-23T18:16:01.225Z,-3.40
2019-01-23T18:18:41.319Z,-3.50
2019-01-23T18:21:21.647Z,-3.40
2019-01-23T18:24:01.625Z,-3.30
2019-01-23T18:26:41.465Z,-3.50
2019-01-23T18:29:21.405Z,-3.40
2019-01-23T18:32:01.531Z,-3.50
2019-01-23T18:34:41.448Z,-3.50
2019-01-23T18:37:21.340Z,-3.40
2019-01-23T18:40:01.665Z,-3.40
2019-01-23T18:42:41.730Z,-3.40
2019-01-23T18:45:21.745Z,-3.40
2019-01-23T18:48:01.647Z,-3.40
2019-01-23T18:50:41.803Z,-4.10
2019-01-23T18:53:21.970Z,-3.30
2019-01-23T18:56:01.864Z,-3.40
2019-01-23T18:58:41.760Z,-4.50
2019-01-23T19:01:21.824Z,-3.50
2019-01-23T19:04:02.085Z,-3.50
2019-01-23T19:06:42.272Z,-3.50
2019-01-23T19:09:22.387Z,-3.50
2019-01-23T19:12:02.362Z,-2.50
2019-01-23T19:14:42.416Z,-3.60
2019-01-23T19:17:22.517Z,-4.20
2019-01-23T19:20:03.036Z,-4.10
2019-01-23T19:22:43.379Z,-3.60
2019-01-23T19:25:23.403Z,-3.70
2019-01-23T19:28:03.477Z,-4.50
2019-01-23T19:30:43.558Z,-2.30
2019-01-23T19:33:23.524Z,-3.60
2019-01-23T19:36:03.692Z,-3.60
2019-01-23T19:38:44.940Z,-3.70
2019-01-23T19:41:26.251Z,-3.60
2019-01-23T19:44:05.941Z,-3.40
2019-01-23T19:46:46.229Z,-3.60
2019-01-23T19:49:26.096Z,-3.50
2019-01-23T19:52:06.229Z,-3.90
2019-01-23T19:54:46.406Z,-3.60
2019-01-23T19:57:26.443Z,-2.00
2019-01-23T20:00:06.404Z,-3.50
2019-01-23T20:02:46.357Z,-3.40
2019-01-23T20:05:26.320Z,-3.40
2019-01-23T20:08:06.126Z,-3.30
2019-01-23T20:10:46.149Z,-3.30
2019-01-23T20:13:26.125Z,-3.40
2019-01-23T20:16:06.333Z,-3.40
2019-01-23T20:18:46.207Z,-4.20
2019-01-23T20:21:26.213Z,-3.30
2019-01-23T20:24:06.249Z,-3.30
2019-01-23T20:26:47.708Z,-3.30
2019-01-23T20:29:27.709Z,-2.90
2019-01-23T20:32:07.771Z,-2.40
2019-01-23T20:34:47.784Z,-3.30
2019-01-23T20:37:27.767Z,-3.40
2019-01-23T20:40:07.783Z,-3.40
2019-01-23T20:42:47.891Z,-3.40
2019-01-23T20:45:27.916Z,-3.40
2019-01-23T20:48:07.844Z,-3.10
2019-01-23T20:50:48.036Z,-3.60
2019-01-23T20:53:28.071Z,-3.40
2019-01-23T20:56:07.950Z,-3.50
2019-01-23T20:58:47.999Z,-3.50
2019-01-23T21:01:27.969Z,-2.10
2019-01-23T21:04:08.149Z,-2.50
2019-01-23T21:06:48.251Z,-4.00
2019-01-23T21:09:28.164Z,-3.50
2019-01-23T21:12:08.136Z,-3.80
2019-01-23T21:14:48.080Z,-3.50
2019-01-23T21:17:27.989Z,-3.50
2019-01-23T21:20:08.065Z,-3.50
2019-01-23T21:22:47.972Z,-3.10
2019-01-23T21:25:27.982Z,-3.40
2019-01-23T21:28:07.831Z,-4.20
2019-01-23T21:30:47.992Z,-3.40
2019-01-23T21:33:27.843Z,-3.40
2019-01-23T21:36:08.013Z,-3.10
2019-01-23T21:38:48.257Z,-3.70
2019-01-23T21:41:28.251Z,-2.00
2019-01-23T21:44:08.240Z,-3.50
2019-01-23T21:46:48.382Z,-3.40
2019-01-23T21:49:28.292Z,-3.50
2019-01-23T21:52:08.197Z,-3.40
2019-01-23T21:54:48.325Z,-4.10
2019-01-23T21:57:28.305Z,-3.40
2019-01-23T22:00:10.281Z,-3.40
2019-01-23T22:02:50.525Z,-3.50
2019-01-23T22:05:30.553Z,-3.40
2019-01-23T22:08:10.675Z,-3.90
2019-01-23T22:10:50.709Z,-4.00
2019-01-23T22:13:30.743Z,-3.40
2019-01-23T22:16:10.751Z,-2.50
2019-01-23T22:18:50.769Z,-1.90
2019-01-23T22:21:30.948Z,-3.30
2019-01-23T22:24:10.796Z,-3.30
2019-01-23T22:26:50.867Z,-3.30
2019-01-23T22:29:30.875Z,-3.30
2019-01-23T22:32:10.707Z,-4.00
2019-01-23T22:34:50.649Z,-3.30
2019-01-23T22:37:30.825Z,-3.30
2019-01-23T22:40:10.943Z,-3.30
2019-01-23T22:42:51.300Z,-3.40
2019-01-23T22:45:31.168Z,-3.90
2019-01-23T22:48:11.308Z,-1.40
2019-01-23T22:50:51.186Z,-3.50
2019-01-23T22:53:31.291Z,-2.50
2019-01-23T22:56:11.443Z,-3.50
2019-01-23T22:58:51.560Z,-3.30
2019-01-23T23:01:31.529Z,-3.50
2019-01-23T23:04:11.157Z,-3.80
2019-01-23T23:06:51.340Z,-3.90
2019-01-23T23:09:31.459Z,-3.90
2019-01-23T23:12:11.556Z,-3.40
2019-01-23T23:14:51.385Z,-4.10
2019-01-23T23:17:31.718Z,-4.30
2019-01-23T23:20:11.593Z,-4.90
2019-01-23T23:22:51.719Z,-4.20
2019-01-23T23:25:31.712Z,-5.10
2019-01-23T23:28:12.053Z,-4.30
2019-01-23T23:30:52.067Z,-5.00
2019-01-23T23:33:31.910Z,-4.50
2019-01-23T23:36:11.686Z,-5.30
2019-01-23T23:38:51.765Z,-4.70
2019-01-23T23:41:31.764Z,-4.80
2019-01-23T23:44:11.745Z,-4.70
2019-01-23T23:46:51.885Z,-4.90
2019-01-23T23:49:31.699Z,-5.80
2019-01-23T23:52:11.972Z,-5.10
2019-01-23T23:54:52.116Z,-5.20
2019-01-23T23:57:32.288Z,-4.50
